createdAt,value
2022-08-28T00:01:37.119Z,100084.00
2022-08-28T00:04:06.012Z,100086.00
2022-08-28T00:06:34.584Z,100082.00
2022-08-28T00:09:03.150Z,100090.00
2022-08-28T00:11:31.876Z,100084.00
2022-08-28T00:14:04.901Z,100085.00
2022-08-28T00:16:33.696Z,100080.00
2022-08-28T00:19:02.539Z,100076.00
2022-08-28T00:21:33.114Z,100067.00
2022-08-28T00:24:02.010Z,100080.00
2022-08-28T00:26:48.151Z,100086.00
2022-08-28T00:29:18.063Z,100088.00
2022-08-28T00:31:46.658Z,100088.00
2022-08-28T00:34:15.679Z,100094.00
2022-08-28T00:36:44.274Z,100102.00
2022-08-28T00:39:12.913Z,100101.00
2022-08-28T00:41:45.113Z,100102.00
2022-08-28T00:44:16.509Z,100099.00
2022-08-28T00:46:49.529Z,100097.00
2022-08-28T00:49:21.260Z,100102.00
2022-08-28T00:52:08.354Z,100102.00
2022-08-28T00:54:56.832Z,100104.00
2022-08-28T00:57:30.700Z,100088.00
2022-08-28T00:59:59.520Z,100098.00
2022-08-28T01:02:29.748Z,100097.00
2022-08-28T01:04:58.392Z,100101.00
2022-08-28T01:07:27.231Z,100099.00
2022-08-28T01:09:56.855Z,100091.00
2022-08-28T01:12:28.414Z,100101.00
2022-08-28T01:15:00.062Z,100091.00
2022-08-28T01:17:32.827Z,100094.00
2022-08-28T01:20:05.746Z,100090.00
2022-08-28T01:22:38.457Z,100095.00
2022-08-28T01:25:13.289Z,100095.00
2022-08-28T01:27:43.046Z,100097.00
2022-08-28T01:30:14.345Z,100105.00
2022-08-28T01:32:47.277Z,100100.00
2022-08-28T01:35:18.081Z,100104.00
2022-08-28T01:37:47.105Z,100110.00
2022-08-28T01:40:23.064Z,100107.00
2022-08-28T01:42:51.989Z,100109.00
2022-08-28T01:45:22.791Z,100116.00
2022-08-28T01:47:51.481Z,100109.00
2022-08-28T01:50:22.292Z,100112.00
2022-08-28T01:52:50.872Z,100116.00
2022-08-28T01:55:21.578Z,100114.00
2022-08-28T01:57:52.973Z,100129.00
2022-08-28T02:00:28.785Z,100115.00
2022-08-28T02:02:58.999Z,100123.00
2022-08-28T02:05:31.153Z,100124.00
2022-08-28T02:08:01.270Z,100119.00
2022-08-28T02:10:32.895Z,100125.00
2022-08-28T02:13:01.947Z,100119.00
2022-08-28T02:15:32.905Z,100129.00
2022-08-28T02:18:01.521Z,100126.00
2022-08-28T02:20:30.429Z,100124.00
2022-08-28T02:22:59.710Z,100128.00
2022-08-28T02:25:30.618Z,100127.00
2022-08-28T02:27:59.267Z,100132.00
2022-08-28T02:30:28.330Z,100114.00
2022-08-28T02:32:57.126Z,100132.00
2022-08-28T02:35:25.995Z,100127.00
2022-08-28T02:37:55.589Z,100126.00
2022-08-28T02:40:25.708Z,100127.00
2022-08-28T02:42:55.704Z,100131.00
2022-08-28T02:45:24.289Z,100124.00
2022-08-28T02:47:54.599Z,100125.00
2022-08-28T02:50:24.079Z,100128.00
2022-08-28T02:52:53.394Z,100122.00
2022-08-28T02:55:22.693Z,100129.00
2022-08-28T02:57:52.729Z,100137.00
2022-08-28T03:00:25.557Z,100133.00
2022-08-28T03:02:54.972Z,100131.00
2022-08-28T03:05:26.249Z,100133.00
2022-08-28T03:07:56.224Z,100137.00
2022-08-28T03:10:25.175Z,100140.00
2022-08-28T03:12:53.855Z,100143.00
2022-08-28T03:15:23.765Z,100141.00
2022-08-28T03:17:52.302Z,100146.00
2022-08-28T03:20:20.950Z,100138.00
2022-08-28T03:23:07.175Z,100136.00
2022-08-28T03:25:35.906Z,100128.00
2022-08-28T03:28:04.832Z,100126.00
2022-08-28T03:30:34.868Z,100135.00
2022-08-28T03:33:03.537Z,100132.00
2022-08-28T03:35:32.239Z,100137.00
2022-08-28T03:38:01.098Z,100138.00
2022-08-28T03:40:29.704Z,100137.00
2022-08-28T03:42:58.391Z,100137.00
2022-08-28T03:45:28.059Z,100141.00
2022-08-28T03:47:58.187Z,100137.00
2022-08-28T03:50:27.765Z,100134.00
2022-08-28T03:52:59.298Z,100135.00
2022-08-28T03:55:28.906Z,100144.00
2022-08-28T03:57:57.540Z,100134.00
2022-08-28T04:00:26.535Z,100138.00
2022-08-28T04:02:55.268Z,100148.00
2022-08-28T04:05:25.567Z,100153.00
2022-08-28T04:07:54.132Z,100158.00
2022-08-28T04:10:22.774Z,100154.00
2022-08-28T04:12:51.340Z,100156.00
2022-08-28T04:15:20.312Z,100159.00
2022-08-28T04:17:54.384Z,100160.00
2022-08-28T04:20:24.575Z,100157.00
2022-08-28T04:22:55.166Z,100171.00
2022-08-28T04:25:24.502Z,100165.00
2022-08-28T04:27:53.957Z,100168.00
2022-08-28T04:30:22.902Z,100173.00
2022-08-28T04:32:51.501Z,100173.00
2022-08-28T04:35:20.113Z,100178.00
2022-08-28T04:37:50.108Z,100171.00
2022-08-28T04:40:19.300Z,100184.00
2022-08-28T04:42:47.904Z,100179.00
2022-08-28T04:45:16.568Z,100184.00
2022-08-28T04:47:45.139Z,100183.00
2022-08-28T04:50:13.958Z,100181.00
2022-08-28T04:52:43.651Z,100184.00
2022-08-28T04:55:14.487Z,100182.00
2022-08-28T04:57:46.841Z,100181.00
2022-08-28T05:00:16.659Z,100188.00
2022-08-28T05:02:46.044Z,100189.00
2022-08-28T05:05:14.753Z,100185.00
2022-08-28T05:07:43.398Z,100187.00
2022-08-28T05:10:15.462Z,100198.00
2022-08-28T05:12:44.180Z,100188.00
2022-08-28T05:15:14.026Z,100197.00
2022-08-28T05:17:42.687Z,100204.00
2022-08-28T05:20:12.341Z,100205.00
2022-08-28T05:22:41.595Z,100207.00
2022-08-28T05:25:11.073Z,100222.00
2022-08-28T05:27:41.416Z,100211.00
2022-08-28T05:30:12.866Z,100214.00
2022-08-28T05:32:45.522Z,100228.00
2022-08-28T05:35:16.309Z,100224.00
2022-08-28T05:37:49.209Z,100230.00
2022-08-28T05:40:18.788Z,100236.00
2022-08-28T05:42:52.329Z,100230.00
2022-08-28T05:45:23.890Z,100236.00
2022-08-28T05:47:55.898Z,100234.00
2022-08-28T05:50:24.641Z,100226.00
2022-08-28T05:52:58.488Z,100250.00
2022-08-28T05:55:27.560Z,100246.00
2022-08-28T05:58:20.084Z,100241.00
2022-08-28T06:00:52.688Z,100247.00
2022-08-28T06:03:21.686Z,100249.00
2022-08-28T06:05:59.070Z,100251.00
2022-08-28T06:08:28.255Z,100251.00
2022-08-28T06:10:57.062Z,100253.00
2022-08-28T06:13:30.866Z,100268.00
2022-08-28T06:16:00.323Z,100256.00
2022-08-28T06:18:29.498Z,100257.00
2022-08-28T06:21:03.769Z,100259.00
2022-08-28T06:23:33.328Z,100275.00
2022-08-28T06:26:07.566Z,100268.00
2022-08-28T06:28:37.775Z,100270.00
2022-08-28T06:31:26.434Z,100274.00
2022-08-28T06:33:57.497Z,100267.00
2022-08-28T06:36:28.852Z,100272.00
2022-08-28T06:39:00.841Z,100268.00
2022-08-28T06:41:32.207Z,100272.00
2022-08-28T06:44:05.402Z,100271.00
2022-08-28T06:46:36.709Z,100273.00
2022-08-28T06:49:09.686Z,100279.00
2022-08-28T06:51:38.423Z,100279.00
2022-08-28T06:54:07.618Z,100288.00
2022-08-28T06:56:38.566Z,100286.00
2022-08-28T06:59:08.766Z,100285.00
2022-08-28T07:01:38.686Z,100289.00
2022-08-28T07:04:09.980Z,100290.00
2022-08-28T07:06:43.214Z,100294.00
2022-08-28T07:09:12.593Z,100293.00
2022-08-28T07:11:41.537Z,100299.00
2022-08-28T07:14:11.785Z,100302.00
2022-08-28T07:16:41.263Z,100300.00
2022-08-28T07:19:11.989Z,100304.00
2022-08-28T07:21:42.739Z,100311.00
2022-08-28T07:24:13.237Z,100306.00
2022-08-28T07:26:43.404Z,100296.00
2022-08-28T07:29:14.408Z,100303.00
2022-08-28T07:31:45.559Z,100301.00
2022-08-28T07:34:15.439Z,100302.00
2022-08-28T07:36:44.641Z,100306.00
2022-08-28T07:39:15.206Z,100309.00
2022-08-28T07:41:44.576Z,100309.00
2022-08-28T07:44:34.651Z,100303.00
2022-08-28T07:47:06.834Z,100307.00
2022-08-28T07:49:37.659Z,100311.00
2022-08-28T07:52:07.134Z,100313.00
2022-08-28T07:54:36.080Z,100305.00
2022-08-28T07:57:04.839Z,100311.00
2022-08-28T07:59:36.836Z,100312.00
2022-08-28T08:02:06.999Z,100315.00
2022-08-28T08:04:35.754Z,100313.00
2022-08-28T08:07:05.783Z,100315.00
2022-08-28T08:09:38.913Z,100316.00
2022-08-28T08:12:08.051Z,100325.00
2022-08-28T08:14:41.530Z,100318.00
2022-08-28T08:17:11.545Z,100330.00
2022-08-28T08:19:40.784Z,100334.00
2022-08-28T08:22:09.477Z,100330.00
2022-08-28T08:24:38.020Z,100326.00
2022-08-28T08:27:07.597Z,100330.00
2022-08-28T08:29:38.649Z,100324.00
2022-08-28T08:32:12.255Z,100332.00
2022-08-28T08:34:42.748Z,100334.00
2022-08-28T08:37:13.372Z,100340.00
2022-08-28T08:39:43.641Z,100342.00
2022-08-28T08:42:22.318Z,100341.00
2022-08-28T08:44:53.001Z,100339.00
2022-08-28T08:47:29.698Z,100346.00
2022-08-28T08:50:00.978Z,100351.00
2022-08-28T08:52:53.254Z,100348.00
2022-08-28T08:55:28.453Z,100353.00
2022-08-28T08:58:07.614Z,100358.00
2022-08-28T09:00:44.213Z,100363.00
2022-08-28T09:03:22.246Z,100366.00
2022-08-28T09:05:56.352Z,100367.00
2022-08-28T09:08:32.625Z,100366.00
2022-08-28T09:11:04.481Z,100365.00
2022-08-28T09:13:42.382Z,100364.00
2022-08-28T09:16:21.992Z,100357.00
2022-08-28T09:18:55.254Z,100364.00
2022-08-28T09:21:30.161Z,100364.00
2022-08-28T09:24:05.610Z,100364.00
2022-08-28T09:26:35.872Z,100361.00
2022-08-28T09:29:07.537Z,100363.00
2022-08-28T09:31:39.208Z,100366.00
2022-08-28T09:34:35.500Z,100374.00
2022-08-28T09:37:09.692Z,100367.00
2022-08-28T09:39:46.654Z,100364.00
2022-08-28T09:42:40.022Z,100366.00
2022-08-28T09:45:18.290Z,100370.00
2022-08-28T09:47:49.683Z,100370.00
2022-08-28T09:50:28.295Z,100373.00
2022-08-28T09:52:59.148Z,100381.00
2022-08-28T09:55:34.947Z,100389.00
2022-08-28T09:58:04.318Z,100379.00
2022-08-28T10:00:37.837Z,100378.00
2022-08-28T10:03:15.551Z,100385.00
2022-08-28T10:05:57.638Z,100377.00
2022-08-28T10:08:43.546Z,100387.00
2022-08-28T10:11:20.600Z,100375.00
2022-08-28T10:14:01.966Z,100383.00
2022-08-28T10:16:42.131Z,100382.00
2022-08-28T10:19:22.050Z,100394.00
2022-08-28T10:21:57.526Z,100384.00
2022-08-28T10:24:44.370Z,100385.00
2022-08-28T10:27:24.586Z,100380.00
2022-08-28T10:30:07.783Z,100390.00
2022-08-28T10:33:05.099Z,100386.00
2022-08-28T10:35:45.137Z,100391.00
2022-08-28T10:38:19.319Z,100390.00
2022-08-28T10:40:56.109Z,100393.00
2022-08-28T10:43:34.170Z,100397.00
2022-08-28T10:46:06.623Z,100394.00
2022-08-28T10:48:41.651Z,100402.00
2022-08-28T10:51:19.476Z,100406.00
2022-08-28T10:54:09.269Z,100402.00
2022-08-28T10:56:42.149Z,100397.00
2022-08-28T10:59:10.748Z,100395.00
2022-08-28T11:01:42.946Z,100401.00
2022-08-28T11:04:25.202Z,100399.00
2022-08-28T11:06:57.445Z,100407.00
2022-08-28T11:09:41.357Z,100403.00
2022-08-28T11:12:38.253Z,100408.00
2022-08-28T11:15:40.913Z,100409.00
2022-08-28T11:18:40.856Z,100406.00
2022-08-28T11:21:20.325Z,100406.00
2022-08-28T11:23:58.130Z,100395.00
2022-08-28T11:27:03.744Z,100409.00
2022-08-28T11:30:19.860Z,100409.00
2022-08-28T11:33:06.931Z,100405.00
2022-08-28T11:36:00.572Z,100412.00
2022-08-28T11:39:11.738Z,100403.00
2022-08-28T11:41:57.289Z,100403.00
2022-08-28T11:44:41.714Z,100407.00
2022-08-28T11:47:56.344Z,100399.00
2022-08-28T11:50:33.773Z,100404.00
2022-08-28T11:53:41.116Z,100403.00
2022-08-28T11:56:41.321Z,100396.00
2022-08-28T11:59:34.988Z,100408.00
2022-08-28T12:02:54.434Z,100399.00
2022-08-28T12:05:48.851Z,100392.00
2022-08-28T12:09:09.050Z,100385.00
2022-08-28T12:11:59.204Z,100391.00
2022-08-28T12:15:08.752Z,100389.00
2022-08-28T12:17:53.466Z,100390.00
2022-08-28T12:20:49.717Z,100392.00
2022-08-28T12:24:03.063Z,100386.00
2022-08-28T12:26:39.938Z,100394.00
2022-08-28T12:29:21.541Z,100396.00
2022-08-28T12:32:22.985Z,100385.00
2022-08-28T12:35:16.127Z,100392.00
2022-08-28T12:37:53.131Z,100386.00
2022-08-28T12:40:25.437Z,100382.00
2022-08-28T12:42:58.202Z,100390.00
2022-08-28T12:45:30.219Z,100390.00
2022-08-28T12:48:02.074Z,100376.00
2022-08-28T12:50:36.052Z,100383.00
2022-08-28T12:53:07.467Z,100388.00
2022-08-28T12:55:38.442Z,100384.00
2022-08-28T12:58:12.942Z,100382.00
2022-08-28T13:00:54.599Z,100381.00
2022-08-28T13:03:23.479Z,100381.00
2022-08-28T13:06:03.285Z,100377.00
2022-08-28T13:08:32.976Z,100383.00
2022-08-28T13:11:01.981Z,100376.00
2022-08-28T13:13:36.308Z,100379.00
2022-08-28T13:16:06.224Z,100376.00
2022-08-28T13:18:42.221Z,100371.00
2022-08-28T13:21:36.231Z,100365.00
2022-08-28T13:24:38.005Z,100369.00
2022-08-28T13:27:22.898Z,100371.00
2022-08-28T13:29:59.845Z,100361.00
2022-08-28T13:32:30.162Z,100355.00
2022-08-28T13:35:38.999Z,100365.00
2022-08-28T13:38:11.629Z,100366.00
2022-08-28T13:41:00.615Z,100364.00
2022-08-28T13:43:31.709Z,100352.00
2022-08-28T13:46:00.601Z,100354.00
2022-08-28T13:48:30.163Z,100361.00
2022-08-28T13:51:05.175Z,100351.00
2022-08-28T13:53:40.481Z,100349.00
2022-08-28T13:56:09.370Z,100361.00
2022-08-28T13:58:37.961Z,100372.00
2022-08-28T14:01:06.834Z,100364.00
2022-08-28T14:03:37.631Z,100364.00
2022-08-28T14:06:08.471Z,100360.00
2022-08-28T14:08:37.237Z,100349.00
2022-08-28T14:11:07.752Z,100354.00
2022-08-28T14:13:36.310Z,100363.00
2022-08-28T14:16:07.455Z,100364.00
2022-08-28T14:18:36.190Z,100361.00
2022-08-28T14:21:07.293Z,100362.00
2022-08-28T14:23:35.893Z,100366.00
2022-08-28T14:26:07.500Z,100364.00
2022-08-28T14:28:36.147Z,100365.00
2022-08-28T14:31:12.285Z,100356.00
2022-08-28T14:33:45.411Z,100352.00
2022-08-28T14:36:17.300Z,100365.00
2022-08-28T14:38:46.381Z,100354.00
2022-08-28T14:41:17.447Z,100360.00
2022-08-28T14:43:46.609Z,100357.00
2022-08-28T14:46:17.070Z,100364.00
2022-08-28T14:48:45.783Z,100354.00
2022-08-28T14:51:14.481Z,100357.00
2022-08-28T14:53:43.070Z,100353.00
2022-08-28T14:56:12.285Z,100366.00
2022-08-28T14:58:42.866Z,100366.00
2022-08-28T15:01:11.609Z,100363.00
2022-08-28T15:03:40.317Z,100364.00
2022-08-28T15:06:10.992Z,100368.00
2022-08-28T15:08:39.855Z,100371.00
2022-08-28T15:11:10.016Z,100375.00
2022-08-28T15:13:38.929Z,100365.00
2022-08-28T15:16:16.057Z,100364.00
2022-08-28T15:18:46.180Z,100365.00
2022-08-28T15:21:20.283Z,100359.00
2022-08-28T15:23:51.477Z,100358.00
2022-08-28T15:26:20.655Z,100355.00
2022-08-28T15:28:55.690Z,100350.00
2022-08-28T15:31:25.919Z,100362.00
2022-08-28T15:33:54.611Z,100357.00
2022-08-28T15:36:25.957Z,100345.00
2022-08-28T15:39:12.186Z,100357.00
2022-08-28T15:41:40.743Z,100358.00
2022-08-28T15:44:14.431Z,100359.00
2022-08-28T15:46:52.557Z,100362.00
2022-08-28T15:49:23.846Z,100363.00
2022-08-28T15:51:52.723Z,100358.00
2022-08-28T15:54:22.166Z,100366.00
2022-08-28T15:56:53.743Z,100358.00
2022-08-28T15:59:22.674Z,100357.00
2022-08-28T16:01:56.059Z,100357.00
2022-08-28T16:04:24.929Z,100360.00
2022-08-28T16:06:56.628Z,100360.00
2022-08-28T16:09:29.302Z,100365.00
2022-08-28T16:11:57.856Z,100363.00
2022-08-28T16:14:26.784Z,100366.00
2022-08-28T16:16:56.712Z,100367.00
2022-08-28T16:19:25.518Z,100369.00
2022-08-28T16:21:54.283Z,100373.00
2022-08-28T16:24:22.836Z,100371.00
2022-08-28T16:26:51.539Z,100367.00
2022-08-28T16:29:20.078Z,100372.00
2022-08-28T16:31:50.616Z,100363.00
2022-08-28T16:34:20.553Z,100368.00
2022-08-28T16:36:50.125Z,100374.00
2022-08-28T16:39:18.973Z,100368.00
2022-08-28T16:41:50.118Z,100372.00
2022-08-28T16:44:20.692Z,100370.00
2022-08-28T16:46:50.369Z,100367.00
2022-08-28T16:49:21.720Z,100367.00
2022-08-28T16:51:50.395Z,100364.00
2022-08-28T16:54:19.042Z,100357.00
2022-08-28T16:56:48.474Z,100355.00
2022-08-28T16:59:23.269Z,100373.00
2022-08-28T17:01:53.018Z,100361.00
2022-08-28T17:04:23.930Z,100360.00
2022-08-28T17:06:52.604Z,100363.00
2022-08-28T17:09:24.153Z,100360.00
2022-08-28T17:11:52.686Z,100368.00
2022-08-28T17:14:21.501Z,100361.00
2022-08-28T17:16:50.558Z,100358.00
2022-08-28T17:19:20.827Z,100361.00
2022-08-28T17:22:08.714Z,100366.00
2022-08-28T17:24:37.587Z,100359.00
2022-08-28T17:27:06.760Z,100364.00
2022-08-28T17:29:36.416Z,100368.00
2022-08-28T17:32:07.771Z,100371.00
2022-08-28T17:34:36.339Z,100366.00
2022-08-28T17:37:07.061Z,100364.00
2022-08-28T17:39:36.008Z,100365.00
2022-08-28T17:42:05.011Z,100370.00
2022-08-28T17:44:35.263Z,100371.00
2022-08-28T17:47:04.156Z,100375.00
2022-08-28T17:49:32.928Z,100380.00
2022-08-28T17:52:02.223Z,100375.00
2022-08-28T17:54:32.467Z,100372.00
2022-08-28T17:57:01.358Z,100379.00
2022-08-28T17:59:29.892Z,100383.00
2022-08-28T18:01:58.491Z,100381.00
2022-08-28T18:04:27.131Z,100391.00
2022-08-28T18:06:55.772Z,100395.00
2022-08-28T18:09:25.132Z,100403.00
2022-08-28T18:11:55.013Z,100404.00
2022-08-28T18:14:23.654Z,100395.00
2022-08-28T18:16:52.386Z,100406.00
2022-08-28T18:19:21.003Z,100410.00
2022-08-28T18:21:49.537Z,100415.00
2022-08-28T18:24:18.120Z,100416.00
2022-08-28T18:26:47.539Z,100417.00
2022-08-28T18:29:17.671Z,100421.00
2022-08-28T18:31:46.308Z,100422.00
2022-08-28T18:34:15.047Z,100432.00
2022-08-28T18:36:43.727Z,100434.00
2022-08-28T18:39:13.157Z,100430.00
2022-08-28T18:41:44.192Z,100437.00
2022-08-28T18:44:14.666Z,100440.00
2022-08-28T18:46:45.032Z,100442.00
2022-08-28T18:49:14.303Z,100446.00
2022-08-28T18:51:44.193Z,100447.00
2022-08-28T18:54:14.199Z,100450.00
2022-08-28T18:56:45.105Z,100452.00
2022-08-28T18:59:13.741Z,100450.00
2022-08-28T19:01:43.840Z,100456.00
2022-08-28T19:04:12.511Z,100446.00
2022-08-28T19:06:44.439Z,100448.00
2022-08-28T19:09:20.537Z,100449.00
2022-08-28T19:11:49.505Z,100454.00
2022-08-28T19:14:18.066Z,100445.00
2022-08-28T19:16:48.382Z,100449.00
2022-08-28T19:19:16.918Z,100451.00
2022-08-28T19:21:47.097Z,100453.00
2022-08-28T19:24:18.017Z,100450.00
2022-08-28T19:26:47.618Z,100460.00
2022-08-28T19:29:16.488Z,100465.00
2022-08-28T19:31:45.352Z,100456.00
2022-08-28T19:34:15.351Z,100462.00
2022-08-28T19:36:44.038Z,100460.00
2022-08-28T19:39:13.203Z,100458.00
2022-08-28T19:41:43.835Z,100464.00
2022-08-28T19:44:12.882Z,100464.00
2022-08-28T19:46:41.539Z,100466.00
2022-08-28T19:49:10.524Z,100469.00
2022-08-28T19:51:41.188Z,100469.00
2022-08-28T19:54:11.186Z,100474.00
2022-08-28T19:56:40.049Z,100477.00
2022-08-28T19:59:10.482Z,100479.00
2022-08-28T20:01:43.624Z,100475.00
2022-08-28T20:04:17.475Z,100478.00
2022-08-28T20:06:48.315Z,100475.00
2022-08-28T20:09:17.622Z,100475.00
2022-08-28T20:11:47.110Z,100477.00
2022-08-28T20:14:17.175Z,100482.00
2022-08-28T20:16:48.418Z,100478.00
2022-08-28T20:19:17.000Z,100481.00
2022-08-28T20:21:50.535Z,100477.00
2022-08-28T20:24:22.093Z,100482.00
2022-08-28T20:26:51.930Z,100480.00
2022-08-28T20:29:21.596Z,100485.00
2022-08-28T20:31:50.447Z,100485.00
2022-08-28T20:34:21.421Z,100487.00
2022-08-28T20:36:51.731Z,100492.00
2022-08-28T20:39:21.402Z,100481.00
2022-08-28T20:41:50.993Z,100493.00
2022-08-28T20:44:21.626Z,100487.00
2022-08-28T20:46:51.364Z,100492.00
2022-08-28T20:49:22.564Z,100490.00
2022-08-28T20:51:57.086Z,100493.00
2022-08-28T20:54:29.259Z,100490.00
2022-08-28T20:57:01.849Z,100482.00
2022-08-28T20:59:39.270Z,100490.00
2022-08-28T21:02:10.443Z,100495.00
2022-08-28T21:04:40.465Z,100499.00
2022-08-28T21:07:10.926Z,100489.00
2022-08-28T21:10:05.478Z,100500.00
2022-08-28T21:12:28.800Z,100509.00
2022-08-28T21:14:57.429Z,100503.00
2022-08-28T21:17:30.012Z,100499.00
2022-08-28T21:20:00.282Z,100512.00
2022-08-28T21:22:31.494Z,100512.00
2022-08-28T21:25:00.207Z,100508.00
2022-08-28T21:27:29.160Z,100522.00
2022-08-28T21:29:58.632Z,100520.00
2022-08-28T21:32:27.467Z,100528.00
2022-08-28T21:34:56.256Z,100519.00
2022-08-28T21:37:25.251Z,100518.00
2022-08-28T21:39:56.584Z,100514.00
2022-08-28T21:42:25.661Z,100522.00
2022-08-28T21:44:56.822Z,100520.00
2022-08-28T21:47:26.540Z,100519.00
2022-08-28T21:49:56.889Z,100526.00
2022-08-28T21:52:28.466Z,100522.00
2022-08-28T21:55:00.757Z,100526.00
2022-08-28T21:57:30.044Z,100527.00
2022-08-28T21:59:59.523Z,100529.00
2022-08-28T22:02:28.527Z,100526.00
2022-08-28T22:04:57.139Z,100532.00
2022-08-28T22:07:25.770Z,100527.00
2022-08-28T22:09:54.355Z,100529.00
2022-08-28T22:12:24.370Z,100522.00
2022-08-28T22:14:53.059Z,100527.00
2022-08-28T22:17:21.611Z,100535.00
2022-08-28T22:19:50.205Z,100529.00
2022-08-28T22:22:36.309Z,100538.00
2022-08-28T22:25:05.352Z,100543.00
2022-08-28T22:27:35.600Z,100539.00
2022-08-28T22:30:04.275Z,100543.00
2022-08-28T22:32:33.360Z,100544.00
2022-08-28T22:35:01.996Z,100546.00
2022-08-28T22:37:30.719Z,100549.00
2022-08-28T22:40:00.209Z,100553.00
2022-08-28T22:42:28.898Z,100549.00
2022-08-28T22:44:59.625Z,100556.00
2022-08-28T22:47:28.507Z,100557.00
2022-08-28T22:49:58.479Z,100555.00
2022-08-28T22:52:27.772Z,100552.00
2022-08-28T22:54:56.256Z,100553.00
2022-08-28T22:57:25.219Z,100554.00
2022-08-28T22:59:54.006Z,100560.00
2022-08-28T23:02:27.287Z,100557.00
2022-08-28T23:04:56.114Z,100560.00
2022-08-28T23:07:24.786Z,100566.00
2022-08-28T23:09:53.435Z,100557.00
2022-08-28T23:12:22.096Z,100569.00
2022-08-28T23:14:50.686Z,100572.00
2022-08-28T23:17:19.565Z,100568.00
2022-08-28T23:19:49.815Z,100564.00
2022-08-28T23:22:19.266Z,100566.00
2022-08-28T23:24:48.760Z,100562.00
2022-08-28T23:27:35.716Z,100570.00
2022-08-28T23:30:05.994Z,100571.00
2022-08-28T23:32:34.647Z,100569.00
2022-08-28T23:35:07.026Z,100565.00
2022-08-28T23:37:36.980Z,100575.00
2022-08-28T23:40:07.896Z,100577.00
2022-08-28T23:42:37.100Z,100573.00
2022-08-28T23:45:08.261Z,100577.00
2022-08-28T23:47:40.687Z,100586.00
2022-08-28T23:50:15.058Z,100579.00
2022-08-28T23:52:44.181Z,100589.00
2022-08-28T23:55:14.781Z,100587.00
2022-08-28T23:57:44.126Z,100593.00
